createdAt,value
2022-08-14T00:00:17.478Z,18.65
2022-08-14T00:01:55.120Z,19.55
2022-08-14T00:03:29.923Z,18.38
2022-08-14T00:05:04.378Z,19.75
2022-08-14T00:06:36.018Z,20.33
2022-08-14T00:08:14.247Z,17.98
2022-08-14T00:10:02.577Z,15.73
2022-08-14T00:11:38.480Z,17.30
2022-08-14T00:13:17.142Z,15.02
2022-08-14T00:14:50.145Z,16.92
2022-08-14T00:16:41.470Z,15.63
2022-08-14T00:18:30.694Z,16.23
2022-08-14T00:20:12.765Z,15.10
2022-08-14T00:21:46.045Z,17.20
2022-08-14T00:23:19.955Z,15.98
2022-08-14T00:24:51.789Z,17.00
2022-08-14T00:26:24.285Z,17.45
2022-08-14T00:27:55.971Z,17.27
2022-08-14T00:29:30.572Z,16.90
2022-08-14T00:31:07.907Z,15.88
2022-08-14T00:32:52.790Z,17.20
2022-08-14T00:34:36.161Z,16.13
2022-08-14T00:36:47.791Z,15.93
2022-08-14T00:38:01.919Z,15.32
2022-08-14T00:39:38.955Z,15.30
2022-08-14T00:41:12.436Z,16.83
2022-08-14T00:42:55.119Z,18.10
2022-08-14T00:44:32.419Z,16.35
2022-08-14T00:46:08.109Z,16.85
2022-08-14T00:47:44.789Z,17.48
2022-08-14T00:49:17.809Z,17.63
2022-08-14T00:50:54.977Z,16.83
2022-08-14T00:52:28.148Z,17.48
2022-08-14T00:54:00.005Z,17.17
2022-08-14T00:55:31.661Z,17.95
2022-08-14T00:57:07.755Z,18.45
2022-08-14T00:58:45.169Z,18.83
2022-08-14T01:00:37.424Z,17.38
2022-08-14T01:02:12.762Z,15.13
2022-08-14T01:03:45.423Z,15.57
2022-08-14T01:05:24.062Z,16.10
2022-08-14T01:06:56.162Z,16.90
2022-08-14T01:08:51.335Z,18.30
2022-08-14T01:10:21.654Z,17.23
2022-08-14T01:11:57.351Z,16.92
2022-08-14T01:13:42.879Z,16.63
2022-08-14T01:15:16.812Z,15.38
2022-08-14T01:16:48.415Z,17.67
2022-08-14T01:18:45.034Z,18.38
2022-08-14T01:20:49.810Z,16.10
2022-08-14T01:22:21.432Z,16.20
2022-08-14T01:23:59.414Z,16.90
2022-08-14T01:25:32.431Z,16.85
2022-08-14T01:27:07.674Z,17.30
2022-08-14T01:28:56.256Z,17.33
2022-08-14T01:30:36.584Z,16.80
2022-08-14T01:32:12.483Z,16.00
2022-08-14T01:34:00.189Z,16.20
2022-08-14T01:36:03.867Z,12.77
2022-08-14T01:37:37.994Z,12.48
2022-08-14T01:39:17.932Z,15.05
2022-08-14T01:40:50.028Z,15.50
2022-08-14T01:42:31.883Z,15.27
2022-08-14T01:44:32.551Z,13.73
2022-08-14T01:46:06.868Z,13.60
2022-08-14T01:47:39.400Z,15.57
2022-08-14T01:49:15.211Z,14.80
2022-08-14T01:50:46.822Z,12.68
2022-08-14T01:52:34.612Z,13.25
2022-08-14T01:54:22.942Z,16.27
2022-08-14T01:56:12.068Z,14.20
2022-08-14T01:58:02.271Z,13.10
2022-08-14T01:59:44.230Z,12.13
2022-08-14T02:01:18.685Z,14.40
2022-08-14T02:02:52.569Z,11.85
2022-08-14T02:04:56.183Z,11.23
2022-08-14T02:06:32.301Z,14.50
2022-08-14T02:08:09.730Z,10.60
2022-08-14T02:09:42.638Z,12.13
2022-08-14T02:11:17.183Z,11.30
2022-08-14T02:12:56.863Z,11.48
2022-08-14T02:14:31.018Z,12.38
2022-08-14T02:16:21.704Z,11.32
2022-08-14T02:17:54.248Z,10.35
2022-08-14T02:19:28.302Z,11.93
2022-08-14T02:21:04.824Z,16.92
2022-08-14T02:22:48.114Z,15.20
2022-08-14T02:24:39.290Z,14.73
2022-08-14T02:28:18.464Z,11.50
2022-08-14T02:28:56.647Z,8.73
2022-08-14T02:30:24.808Z,8.73
2022-08-14T02:32:03.282Z,10.10
2022-08-14T02:33:39.377Z,10.18
2022-08-14T02:35:19.156Z,10.57
2022-08-14T02:37:03.640Z,9.07
2022-08-14T02:38:39.249Z,9.98
2022-08-14T02:40:11.742Z,11.35
2022-08-14T02:41:45.155Z,10.82
2022-08-14T02:43:24.557Z,10.55
2022-08-14T02:45:09.091Z,10.88
2022-08-14T02:46:44.790Z,10.02
2022-08-14T02:49:04.364Z,9.93
2022-08-14T02:50:13.139Z,8.55
2022-08-14T02:51:49.290Z,10.45
2022-08-14T02:53:22.371Z,10.07
2022-08-14T02:54:54.118Z,10.07
2022-08-14T02:56:30.210Z,10.82
2022-08-14T02:58:30.311Z,8.88
2022-08-14T03:00:06.613Z,8.55
2022-08-14T03:01:43.647Z,9.32
2022-08-14T03:03:23.532Z,8.77
2022-08-14T03:04:55.656Z,9.00
2022-08-14T03:06:35.069Z,8.88
2022-08-14T03:08:20.047Z,8.13
2022-08-14T03:10:28.096Z,9.20
2022-08-14T03:13:21.665Z,6.85
2022-08-14T03:14:53.655Z,8.13
2022-08-14T03:16:27.130Z,7.53
2022-08-14T03:17:58.872Z,8.00
2022-08-14T03:19:30.622Z,7.90
2022-08-14T03:21:05.833Z,7.75
2022-08-14T03:22:37.506Z,8.15
2022-08-14T03:24:21.543Z,8.20
2022-08-14T03:25:54.781Z,7.72
2022-08-14T03:27:35.357Z,8.43
2022-08-14T03:29:20.538Z,8.23
2022-08-14T03:30:59.820Z,7.57
2022-08-14T03:32:33.399Z,8.23
2022-08-14T03:34:05.078Z,8.05
2022-08-14T03:35:59.810Z,7.55
2022-08-14T03:39:10.029Z,8.05
2022-08-14T03:39:27.613Z,7.88
2022-08-14T03:40:59.405Z,8.52
2022-08-14T03:42:36.621Z,9.05
2022-08-14T03:45:27.067Z,8.10
2022-08-14T03:46:00.445Z,8.30
2022-08-14T03:47:56.107Z,8.55
2022-08-14T03:49:30.621Z,8.38
2022-08-14T03:51:02.570Z,8.25
2022-08-14T03:52:39.353Z,8.32
2022-08-14T03:54:15.763Z,8.48
2022-08-14T03:55:56.974Z,8.07
2022-08-14T03:57:32.365Z,8.65
2022-08-14T03:59:10.295Z,8.05
2022-08-14T04:00:49.429Z,7.72
2022-08-14T04:02:37.499Z,7.70
2022-08-14T04:04:15.409Z,7.35
2022-08-14T04:05:49.550Z,7.68
2022-08-14T04:07:22.475Z,7.47
2022-08-14T04:08:54.368Z,7.57
2022-08-14T04:10:32.544Z,7.63
2022-08-14T04:12:06.109Z,7.55
2022-08-14T04:13:42.287Z,7.88
2022-08-14T04:15:15.069Z,7.80
2022-08-14T04:16:50.803Z,7.78
2022-08-14T04:18:22.506Z,7.68
2022-08-14T04:19:54.323Z,7.85
2022-08-14T04:21:29.471Z,8.07
2022-08-14T04:23:06.946Z,7.65
2022-08-14T04:24:47.196Z,8.15
2022-08-14T04:26:27.352Z,7.80
2022-08-14T04:29:06.863Z,8.20
2022-08-14T04:30:07.769Z,7.88
2022-08-14T04:32:58.486Z,7.22
2022-08-14T04:33:32.415Z,7.50
2022-08-14T04:35:07.482Z,8.18
2022-08-14T04:37:00.917Z,6.88
2022-08-14T04:38:52.715Z,7.03
2022-08-14T04:40:44.070Z,7.53
2022-08-14T04:44:06.994Z,7.13
2022-08-14T04:45:45.340Z,7.90
2022-08-14T04:47:46.322Z,7.70
2022-08-14T04:49:19.270Z,7.90
2022-08-14T04:50:54.025Z,8.02
2022-08-14T04:52:26.010Z,8.65
2022-08-14T04:53:57.638Z,9.18
2022-08-14T04:55:29.833Z,8.30
2022-08-14T04:57:02.616Z,8.75
2022-08-14T04:58:35.122Z,9.02
2022-08-14T05:00:16.239Z,8.93
2022-08-14T05:01:53.998Z,9.10
2022-08-14T05:03:31.839Z,8.60
2022-08-14T05:05:04.013Z,8.68
2022-08-14T05:06:39.179Z,9.63
2022-08-14T05:08:31.976Z,8.98
2022-08-14T05:10:13.100Z,8.93
2022-08-14T05:11:48.156Z,9.27
2022-08-14T05:13:24.223Z,9.77
2022-08-14T05:15:02.243Z,9.60
2022-08-14T05:16:34.138Z,10.40
2022-08-14T05:18:36.948Z,9.88
2022-08-14T05:21:04.433Z,9.30
2022-08-14T05:22:16.537Z,9.23
2022-08-14T05:23:50.010Z,9.77
2022-08-14T05:25:21.641Z,9.95
2022-08-14T05:26:54.227Z,10.30
2022-08-14T05:28:28.481Z,9.93
2022-08-14T05:30:05.454Z,10.75
2022-08-14T05:31:40.687Z,11.10
2022-08-14T05:33:14.586Z,10.23
2022-08-14T05:34:47.660Z,11.68
2022-08-14T05:36:19.281Z,12.15
2022-08-14T05:37:53.773Z,11.50
2022-08-14T05:39:26.433Z,11.50
2022-08-14T05:40:58.231Z,10.80
2022-08-14T05:42:31.961Z,11.18
2022-08-14T05:44:05.819Z,11.80
2022-08-14T05:45:37.916Z,10.95
2022-08-14T05:47:10.707Z,10.90
2022-08-14T05:48:47.490Z,10.73
2022-08-14T05:50:19.965Z,10.98
2022-08-14T05:51:52.188Z,11.18
2022-08-14T05:53:25.472Z,11.13
2022-08-14T05:54:58.951Z,11.63
2022-08-14T05:56:30.667Z,11.75
2022-08-14T05:58:06.187Z,10.65
2022-08-14T05:59:41.897Z,11.23
2022-08-14T06:01:13.592Z,10.75
2022-08-14T06:02:46.238Z,10.02
2022-08-14T06:04:17.928Z,11.40
2022-08-14T06:05:52.759Z,10.90
2022-08-14T06:07:24.414Z,10.63
2022-08-14T06:08:56.049Z,10.05
2022-08-14T06:10:30.635Z,10.02
2022-08-14T06:12:03.212Z,10.45
2022-08-14T06:13:40.971Z,10.35
2022-08-14T06:15:17.112Z,9.45
2022-08-14T06:16:53.374Z,9.57
2022-08-14T06:18:25.276Z,10.80
2022-08-14T06:19:56.911Z,9.55
2022-08-14T06:21:28.558Z,9.57
2022-08-14T06:23:01.973Z,8.75
2022-08-14T06:24:35.674Z,9.63
2022-08-14T06:26:07.602Z,9.43
2022-08-14T06:27:47.653Z,8.73
2022-08-14T06:29:19.506Z,8.82
2022-08-14T06:30:54.143Z,8.68
2022-08-14T06:32:37.527Z,8.93
2022-08-14T06:35:09.624Z,8.52
2022-08-14T06:36:02.679Z,9.23
2022-08-14T06:37:53.689Z,8.35
2022-08-14T06:39:37.568Z,7.88
2022-08-14T06:41:10.972Z,8.52
2022-08-14T06:42:42.812Z,8.23
2022-08-14T06:44:14.858Z,9.30
2022-08-14T06:45:53.864Z,9.60
2022-08-14T06:47:26.278Z,8.10
2022-08-14T06:48:58.314Z,8.75
2022-08-14T06:50:31.584Z,8.68
2022-08-14T06:52:05.549Z,9.05
2022-08-14T06:53:37.709Z,7.93
2022-08-14T06:55:11.149Z,8.20
2022-08-14T06:56:44.430Z,8.38
2022-08-14T06:58:29.385Z,8.23
2022-08-14T07:00:03.719Z,8.73
2022-08-14T07:01:56.754Z,7.88
2022-08-14T07:03:48.508Z,7.95
2022-08-14T07:07:10.722Z,7.83
2022-08-14T07:08:43.493Z,8.70
2022-08-14T07:10:17.179Z,8.43
2022-08-14T07:11:49.718Z,7.70
2022-08-14T07:13:22.226Z,9.15
2022-08-14T07:15:01.056Z,8.65
2022-08-14T07:16:33.247Z,9.05
2022-08-14T07:18:08.925Z,8.63
2022-08-14T07:19:40.850Z,7.97
2022-08-14T07:21:12.786Z,7.72
2022-08-14T07:22:55.956Z,8.05
2022-08-14T07:24:31.623Z,7.88
2022-08-14T07:26:04.929Z,8.70
2022-08-14T07:27:40.767Z,8.48
2022-08-14T07:29:14.435Z,8.43
2022-08-14T07:31:04.328Z,8.57
2022-08-14T07:32:36.940Z,8.13
2022-08-14T07:34:08.598Z,8.60
2022-08-14T07:35:58.684Z,8.35
2022-08-14T07:37:30.795Z,8.27
2022-08-14T07:39:12.457Z,9.35
2022-08-14T07:40:45.232Z,7.70
2022-08-14T07:42:20.026Z,7.50
2022-08-14T07:43:55.735Z,8.73
2022-08-14T07:45:31.981Z,8.18
2022-08-14T07:47:05.192Z,7.30
2022-08-14T07:48:41.284Z,7.13
2022-08-14T07:50:20.092Z,7.47
2022-08-14T07:51:52.128Z,7.28
2022-08-14T07:53:23.950Z,8.05
2022-08-14T07:54:56.258Z,7.18
2022-08-14T07:56:47.582Z,7.47
2022-08-14T07:58:32.626Z,7.82
2022-08-14T08:00:31.593Z,7.50
2022-08-14T08:02:05.981Z,6.78
2022-08-14T08:03:51.915Z,8.23
2022-08-14T08:05:28.961Z,6.80
2022-08-14T08:07:00.844Z,7.15
2022-08-14T08:08:32.621Z,7.35
2022-08-14T08:11:01.267Z,7.65
2022-08-14T08:12:29.782Z,7.10
2022-08-14T08:14:16.314Z,7.18
2022-08-14T08:15:53.707Z,7.50
2022-08-14T08:17:26.249Z,8.10
2022-08-14T08:19:12.669Z,7.15
2022-08-14T08:20:52.173Z,7.28
2022-08-14T08:22:27.467Z,7.50
2022-08-14T08:24:04.455Z,7.13
2022-08-14T08:25:40.138Z,8.00
2022-08-14T08:27:17.317Z,7.00
2022-08-14T08:28:57.712Z,7.45
2022-08-14T08:30:32.293Z,6.73
2022-08-14T08:32:06.165Z,7.65
2022-08-14T08:33:39.127Z,7.03
2022-08-14T08:35:23.622Z,7.45
2022-08-14T08:36:58.492Z,6.70
2022-08-14T08:39:16.836Z,7.25
2022-08-14T08:40:25.496Z,6.75
2022-08-14T08:42:03.530Z,7.15
2022-08-14T08:43:36.468Z,6.70
2022-08-14T08:45:12.280Z,7.32
2022-08-14T08:46:44.589Z,7.10
2022-08-14T08:48:20.843Z,6.80
2022-08-14T08:50:03.869Z,6.78
2022-08-14T08:52:04.195Z,5.63
2022-08-14T08:53:37.137Z,6.00
2022-08-14T08:55:10.745Z,5.85
2022-08-14T08:56:46.643Z,6.38
2022-08-14T08:58:20.121Z,5.97
2022-08-14T08:59:58.630Z,5.90
2022-08-14T09:01:31.098Z,6.43
2022-08-14T09:03:10.199Z,6.32
2022-08-14T09:04:45.179Z,6.25
2022-08-14T09:06:56.899Z,6.25
2022-08-14T09:08:30.324Z,6.05
2022-08-14T09:10:04.099Z,6.40
2022-08-14T09:11:36.261Z,7.20
2022-08-14T09:13:08.432Z,7.00
2022-08-14T09:14:41.195Z,6.65
2022-08-14T09:16:19.315Z,6.45
2022-08-14T09:17:52.277Z,6.13
2022-08-14T09:19:23.968Z,6.13
2022-08-14T09:20:58.786Z,5.97
2022-08-14T09:22:35.884Z,6.55
2022-08-14T09:24:29.689Z,6.38
2022-08-14T09:26:04.941Z,5.68
2022-08-14T09:27:52.279Z,5.68
2022-08-14T09:29:28.746Z,5.32
2022-08-14T09:31:01.716Z,5.80
2022-08-14T09:33:22.988Z,6.40
2022-08-14T09:35:22.670Z,5.57
2022-08-14T09:37:13.771Z,5.30
2022-08-14T09:39:23.240Z,5.78
2022-08-14T09:42:21.563Z,5.60
2022-08-14T09:43:51.776Z,6.82
2022-08-14T09:45:52.425Z,6.35
2022-08-14T09:47:43.361Z,5.57
2022-08-14T09:49:16.398Z,5.63
2022-08-14T09:50:53.385Z,5.50
2022-08-14T09:52:34.144Z,5.80
2022-08-14T09:54:22.596Z,6.25
2022-08-14T09:55:59.608Z,6.13
2022-08-14T09:57:31.774Z,5.55
2022-08-14T09:59:15.911Z,6.32
2022-08-14T10:00:52.710Z,5.53
2022-08-14T10:02:27.987Z,6.05
2022-08-14T10:04:00.341Z,5.95
2022-08-14T10:05:34.205Z,5.63
2022-08-14T10:07:10.176Z,5.03
2022-08-14T10:08:44.239Z,5.47
2022-08-14T10:10:38.513Z,5.10
2022-08-14T10:12:18.643Z,4.93
2022-08-14T10:13:54.379Z,5.15
2022-08-14T10:15:30.649Z,4.75
2022-08-14T10:17:02.540Z,5.78
2022-08-14T10:18:37.133Z,5.05
2022-08-14T10:20:40.809Z,5.00
2022-08-14T10:23:13.738Z,7.72
2022-08-14T10:24:02.903Z,4.15
2022-08-14T10:25:47.562Z,4.68
2022-08-14T10:27:23.635Z,5.53
2022-08-14T10:29:19.531Z,5.00
2022-08-14T10:30:55.218Z,4.45
2022-08-14T10:32:40.132Z,4.50
2022-08-14T10:34:20.974Z,4.40
2022-08-14T10:36:01.486Z,4.88
2022-08-14T10:37:41.690Z,5.38
2022-08-14T10:39:25.879Z,5.18
2022-08-14T10:41:12.650Z,4.90
2022-08-14T10:42:46.943Z,5.10
2022-08-14T10:44:23.154Z,4.45
2022-08-14T10:46:59.235Z,4.50
2022-08-14T10:48:08.740Z,4.68
2022-08-14T10:49:50.004Z,5.10
2022-08-14T10:51:26.465Z,5.15
2022-08-14T10:52:59.782Z,4.50
2022-08-14T10:54:42.030Z,5.10
2022-08-14T10:56:21.573Z,4.30
2022-08-14T10:58:04.373Z,4.60
2022-08-14T10:59:56.003Z,4.95
2022-08-14T11:01:32.464Z,5.05
2022-08-14T11:03:26.453Z,5.10
2022-08-14T11:05:13.491Z,4.47
2022-08-14T11:06:56.294Z,4.70
2022-08-14T11:08:33.350Z,4.60
2022-08-14T11:10:09.273Z,4.55
2022-08-14T11:11:43.667Z,7.85
2022-08-14T11:13:18.638Z,4.45
2022-08-14T11:14:59.321Z,4.63
2022-08-14T11:16:32.741Z,4.20
2022-08-14T11:18:05.152Z,4.20
2022-08-14T11:19:38.099Z,4.15
2022-08-14T11:21:10.625Z,3.95
2022-08-14T11:23:03.238Z,4.00
2022-08-14T11:24:55.444Z,4.43
2022-08-14T11:26:30.020Z,4.13
2022-08-14T11:28:02.605Z,4.40
2022-08-14T11:29:36.940Z,4.55
2022-08-14T11:31:10.377Z,4.18
2022-08-14T11:32:48.640Z,4.30
2022-08-14T11:34:32.508Z,3.97
2022-08-14T11:36:17.259Z,4.07
2022-08-14T11:38:02.466Z,4.20
2022-08-14T11:39:36.585Z,4.05
2022-08-14T11:41:10.893Z,4.13
2022-08-14T11:42:56.921Z,4.05
2022-08-14T11:44:45.827Z,4.05
2022-08-14T11:46:30.865Z,3.58
2022-08-14T11:50:37.694Z,4.57
2022-08-14T11:52:09.837Z,4.10
2022-08-14T11:53:43.522Z,4.40
2022-08-14T11:55:21.177Z,4.90
2022-08-14T11:56:56.935Z,4.80
2022-08-14T11:58:31.866Z,4.25
2022-08-14T12:00:09.649Z,4.30
2022-08-14T12:01:46.755Z,5.03
2022-08-14T12:03:37.520Z,5.38
2022-08-14T12:05:12.713Z,4.38
2022-08-14T12:06:52.641Z,4.40
2022-08-14T12:08:34.809Z,3.80
2022-08-14T12:10:26.815Z,4.75
2022-08-14T12:12:35.266Z,4.43
2022-08-14T12:14:13.595Z,4.50
2022-08-14T12:16:06.581Z,4.50
2022-08-14T12:17:53.217Z,5.75
2022-08-14T12:19:27.950Z,4.35
2022-08-14T12:21:15.844Z,4.32
2022-08-14T12:22:52.686Z,4.70
2022-08-14T12:24:35.776Z,4.05
2022-08-14T12:26:39.078Z,4.15
2022-08-14T12:28:33.366Z,4.80
2022-08-14T12:30:06.418Z,4.35
2022-08-14T12:31:44.664Z,4.90
2022-08-14T12:33:24.065Z,4.55
2022-08-14T12:34:56.959Z,4.97
2022-08-14T12:36:33.029Z,4.53
2022-08-14T12:38:05.155Z,4.10
2022-08-14T12:39:40.200Z,4.70
2022-08-14T12:41:21.110Z,4.38
2022-08-14T12:44:39.093Z,3.85
2022-08-14T12:46:11.552Z,4.43
2022-08-14T12:48:01.224Z,4.90
2022-08-14T12:49:57.787Z,4.53
2022-08-14T12:51:31.481Z,4.95
2022-08-14T12:53:14.535Z,4.78
2022-08-14T12:55:06.571Z,4.50
2022-08-14T12:56:38.700Z,4.88
2022-08-14T12:58:28.848Z,4.47
2022-08-14T13:00:22.493Z,4.30
2022-08-14T13:01:59.493Z,4.78
2022-08-14T13:03:35.782Z,4.53
2022-08-14T13:05:12.254Z,4.90
2022-08-14T13:06:51.282Z,4.07
2022-08-14T13:08:33.665Z,4.97
2022-08-14T13:10:12.844Z,4.63
2022-08-14T13:12:31.999Z,4.28
2022-08-14T13:13:59.630Z,4.63
2022-08-14T13:15:31.357Z,4.80
2022-08-14T13:17:04.069Z,5.18
2022-08-14T13:18:41.179Z,8.13
2022-08-14T13:20:24.294Z,5.18
2022-08-14T13:21:58.700Z,4.93
2022-08-14T13:23:39.983Z,4.70
2022-08-14T13:25:15.732Z,4.90
2022-08-14T13:26:59.251Z,4.50
2022-08-14T13:28:33.533Z,5.20
2022-08-14T13:30:10.558Z,4.80
2022-08-14T13:31:51.611Z,5.00
2022-08-14T13:33:27.289Z,4.90
2022-08-14T13:35:00.454Z,4.72
2022-08-14T13:36:51.452Z,6.18
2022-08-14T13:38:25.438Z,4.72
2022-08-14T13:39:59.774Z,4.90
2022-08-14T13:41:36.208Z,4.85
2022-08-14T13:43:08.914Z,5.20
2022-08-14T13:44:43.102Z,4.95
2022-08-14T13:46:14.834Z,4.72
2022-08-14T13:47:48.442Z,5.43
2022-08-14T13:49:23.960Z,5.15
2022-08-14T13:50:58.487Z,5.57
2022-08-14T13:52:51.338Z,4.63
2022-08-14T13:54:29.877Z,5.07
2022-08-14T13:56:03.358Z,4.68
2022-08-14T13:57:40.281Z,4.90
2022-08-14T13:59:37.198Z,4.45
2022-08-14T14:01:15.902Z,4.70
2022-08-14T14:02:48.471Z,5.00
2022-08-14T14:04:25.290Z,5.35
2022-08-14T14:05:58.586Z,4.55
2022-08-14T14:07:33.945Z,4.60
2022-08-14T14:09:14.623Z,4.47
2022-08-14T14:10:47.728Z,4.95
2022-08-14T14:12:37.637Z,4.60
2022-08-14T14:14:45.088Z,4.20
2022-08-14T14:16:05.371Z,4.50
2022-08-14T14:17:38.887Z,4.75
2022-08-14T14:19:11.210Z,5.03
2022-08-14T14:20:45.674Z,4.50
2022-08-14T14:23:00.676Z,4.38
2022-08-14T14:24:14.707Z,4.53
2022-08-14T14:25:56.917Z,4.70
2022-08-14T14:27:40.315Z,4.85
2022-08-14T14:29:14.414Z,5.13
2022-08-14T14:30:53.321Z,5.15
2022-08-14T14:32:32.178Z,4.63
2022-08-14T14:34:07.325Z,4.95
2022-08-14T14:35:46.384Z,6.13
2022-08-14T14:37:19.525Z,5.72
2022-08-14T14:38:56.690Z,4.95
2022-08-14T14:40:54.696Z,4.72
2022-08-14T14:42:32.196Z,5.32
2022-08-14T14:44:08.962Z,4.53
2022-08-14T14:45:45.955Z,4.45
2022-08-14T14:47:22.751Z,4.10
2022-08-14T14:48:55.134Z,4.57
2022-08-14T14:50:27.114Z,5.25
2022-08-14T14:52:00.621Z,5.35
2022-08-14T14:53:39.080Z,5.40
2022-08-14T14:55:12.775Z,5.07
2022-08-14T14:56:51.625Z,5.25
2022-08-14T14:58:25.752Z,4.85
2022-08-14T14:59:58.712Z,4.07
2022-08-14T15:01:32.761Z,3.50
2022-08-14T15:03:04.537Z,3.95
2022-08-14T15:04:38.202Z,3.30
2022-08-14T15:06:10.019Z,3.92
2022-08-14T15:07:46.466Z,3.50
2022-08-14T15:09:20.486Z,4.10
2022-08-14T15:10:55.240Z,3.80
2022-08-14T15:12:55.318Z,3.60
2022-08-14T15:14:54.837Z,3.50
2022-08-14T15:16:12.693Z,3.40
2022-08-14T15:17:45.159Z,3.13
2022-08-14T15:19:19.349Z,3.63
2022-08-14T15:20:54.135Z,3.88
2022-08-14T15:22:29.083Z,3.53
2022-08-14T15:24:02.221Z,4.88
2022-08-14T15:25:36.387Z,4.38
2022-08-14T15:27:09.287Z,4.00
2022-08-14T15:28:43.583Z,9.18
2022-08-14T15:30:24.417Z,7.70
2022-08-14T15:32:09.252Z,8.32
2022-08-14T15:34:33.412Z,6.95
2022-08-14T15:35:51.226Z,6.68
2022-08-14T15:37:23.749Z,5.10
2022-08-14T15:38:56.465Z,4.68
2022-08-14T15:40:28.329Z,4.60
2022-08-14T15:42:03.415Z,4.55
2022-08-14T15:43:46.729Z,4.43
2022-08-14T15:45:18.948Z,5.10
2022-08-14T15:46:50.577Z,5.18
2022-08-14T15:48:25.675Z,5.20
2022-08-14T15:50:04.778Z,5.05
2022-08-14T15:51:36.761Z,5.20
2022-08-14T15:53:14.195Z,5.18
2022-08-14T15:54:45.941Z,5.63
2022-08-14T15:56:33.210Z,6.05
2022-08-14T15:58:14.269Z,5.53
2022-08-14T16:00:04.748Z,5.70
2022-08-14T16:01:54.153Z,6.03
2022-08-14T16:03:36.538Z,5.82
2022-08-14T16:05:11.641Z,5.32
2022-08-14T16:06:45.246Z,5.38
2022-08-14T16:08:29.077Z,5.70
2022-08-14T16:10:27.304Z,5.88
2022-08-14T16:11:54.221Z,6.35
2022-08-14T16:13:41.249Z,6.00
2022-08-14T16:15:14.090Z,6.13
2022-08-14T16:17:00.089Z,6.22
2022-08-14T16:18:36.559Z,6.10
2022-08-14T16:20:09.282Z,5.90
2022-08-14T16:22:01.639Z,5.78
2022-08-14T16:23:35.923Z,6.15
2022-08-14T16:25:09.037Z,6.50
2022-08-14T16:26:40.821Z,6.10
2022-08-14T16:28:27.473Z,6.72
2022-08-14T16:30:01.223Z,6.07
2022-08-14T16:31:39.927Z,6.97
2022-08-14T16:33:28.011Z,5.88
2022-08-14T16:35:11.018Z,6.20
2022-08-14T16:36:50.919Z,5.35
2022-08-14T16:38:46.062Z,5.40
2022-08-14T16:40:21.809Z,5.70
2022-08-14T16:41:56.906Z,5.88
2022-08-14T16:43:29.265Z,6.05
2022-08-14T16:45:01.295Z,5.93
2022-08-14T16:46:37.329Z,6.25
2022-08-14T16:48:55.440Z,5.90
2022-08-14T16:50:11.418Z,5.93
2022-08-14T16:51:44.746Z,5.93
2022-08-14T16:53:17.861Z,5.65
2022-08-14T16:54:49.839Z,5.40
2022-08-14T16:56:25.559Z,6.22
2022-08-14T16:57:59.877Z,6.40
2022-08-14T16:59:52.420Z,6.07
2022-08-14T17:01:27.401Z,5.63
2022-08-14T17:03:08.652Z,5.65
2022-08-14T17:04:43.639Z,5.47
2022-08-14T17:06:43.040Z,5.85
2022-08-14T17:08:41.882Z,5.68
2022-08-14T17:10:12.505Z,5.82
2022-08-14T17:12:00.378Z,6.10
2022-08-14T17:13:57.817Z,5.72
2022-08-14T17:15:32.547Z,5.72
2022-08-14T17:17:04.287Z,5.85
2022-08-14T17:18:41.213Z,6.03
2022-08-14T17:20:54.836Z,6.32
2022-08-14T17:22:11.941Z,5.82
2022-08-14T17:23:45.940Z,6.30
2022-08-14T17:25:37.138Z,5.90
2022-08-14T17:27:10.791Z,6.18
2022-08-14T17:28:51.416Z,5.68
2022-08-14T17:32:22.037Z,8.68
2022-08-14T17:34:02.114Z,5.90
2022-08-14T17:35:58.715Z,6.15
2022-08-14T17:37:34.237Z,5.90
2022-08-14T17:39:15.885Z,6.15
2022-08-14T17:41:09.467Z,6.40
2022-08-14T17:42:53.331Z,5.85
2022-08-14T17:44:33.334Z,6.78
2022-08-14T17:46:06.469Z,6.18
2022-08-14T17:47:43.352Z,6.45
2022-08-14T17:49:18.367Z,6.03
2022-08-14T17:50:58.820Z,6.05
2022-08-14T17:52:41.312Z,6.40
2022-08-14T17:54:14.635Z,6.63
2022-08-14T17:56:01.567Z,6.30
2022-08-14T17:57:41.236Z,6.40
2022-08-14T17:59:17.590Z,6.68
2022-08-14T18:00:53.905Z,6.68
2022-08-14T18:02:30.986Z,6.00
2022-08-14T18:04:24.530Z,6.22
2022-08-14T18:06:07.620Z,5.70
2022-08-14T18:08:31.667Z,6.65
2022-08-14T18:09:57.250Z,6.80
2022-08-14T18:11:45.974Z,6.22
2022-08-14T18:13:19.169Z,5.65
2022-08-14T18:15:14.341Z,6.00
2022-08-14T18:16:47.827Z,6.20
2022-08-14T18:18:19.839Z,8.07
2022-08-14T18:19:52.447Z,7.28
2022-08-14T18:21:56.934Z,6.55
2022-08-14T18:23:16.063Z,6.60
2022-08-14T18:24:48.267Z,7.50
2022-08-14T18:26:36.041Z,6.90
2022-08-14T18:28:15.957Z,6.70
2022-08-14T18:29:55.454Z,6.28
2022-08-14T18:31:42.089Z,6.93
2022-08-14T18:33:22.601Z,6.90
2022-08-14T18:35:10.929Z,6.90
2022-08-14T18:36:52.742Z,8.00
2022-08-14T18:38:46.119Z,6.40
2022-08-14T18:40:22.507Z,7.15
2022-08-14T18:42:23.604Z,6.60
2022-08-14T18:43:58.885Z,6.78
2022-08-14T18:45:34.525Z,6.60
2022-08-14T18:47:16.054Z,6.75
2022-08-14T18:49:14.341Z,7.10
2022-08-14T18:50:56.379Z,6.72
2022-08-14T18:52:37.158Z,7.38
2022-08-14T18:54:27.462Z,6.90
2022-08-14T18:56:10.069Z,11.13
2022-08-14T18:57:54.686Z,6.57
2022-08-14T18:59:37.343Z,7.30
2022-08-14T19:01:23.200Z,7.10
2022-08-14T19:02:56.825Z,7.70
2022-08-14T19:04:37.318Z,6.90
2022-08-14T19:06:09.960Z,6.97
2022-08-14T19:07:41.851Z,6.70
2022-08-14T19:09:51.140Z,7.45
2022-08-14T19:11:36.947Z,6.22
2022-08-14T19:13:11.755Z,6.32
2022-08-14T19:14:46.977Z,6.07
2022-08-14T19:16:23.291Z,6.68
2022-08-14T19:18:14.033Z,6.60
2022-08-14T19:20:06.531Z,6.20
2022-08-14T19:21:43.419Z,6.47
2022-08-14T19:23:22.083Z,6.85
2022-08-14T19:24:54.189Z,6.15
2022-08-14T19:26:36.375Z,6.43
2022-08-14T19:28:47.011Z,5.72
2022-08-14T19:30:23.152Z,6.30
2022-08-14T19:32:03.471Z,6.43
2022-08-14T19:33:48.893Z,6.15
2022-08-14T19:35:24.802Z,6.82
2022-08-14T19:37:47.876Z,5.90
2022-08-14T19:39:47.661Z,6.07
2022-08-14T19:41:34.000Z,5.53
2022-08-14T19:43:08.926Z,6.93
2022-08-14T19:44:41.533Z,6.22
2022-08-14T19:46:39.566Z,6.38
2022-08-14T19:48:20.159Z,6.03
2022-08-14T19:50:25.213Z,6.03
2022-08-14T19:51:48.785Z,6.03
2022-08-14T19:53:20.592Z,5.50
2022-08-14T19:54:53.246Z,5.82
2022-08-14T19:56:29.077Z,5.88
2022-08-14T19:58:01.228Z,5.85
2022-08-14T19:59:36.772Z,5.88
2022-08-14T20:01:37.462Z,5.95
2022-08-14T20:03:10.080Z,5.38
2022-08-14T20:04:47.320Z,5.80
2022-08-14T20:06:24.593Z,5.70
2022-08-14T20:08:06.196Z,6.43
2022-08-14T20:11:07.226Z,6.45
2022-08-14T20:12:00.481Z,6.05
2022-08-14T20:13:32.467Z,5.45
2022-08-14T20:15:17.785Z,5.45
2022-08-14T20:17:06.232Z,5.40
2022-08-14T20:18:49.971Z,5.70
2022-08-14T20:20:31.870Z,5.60
2022-08-14T20:22:35.235Z,5.60
2022-08-14T20:24:30.364Z,5.90
2022-08-14T20:26:03.169Z,5.82
2022-08-14T20:27:38.143Z,6.47
2022-08-14T20:29:29.172Z,5.43
2022-08-14T20:31:17.938Z,6.10
2022-08-14T20:32:57.976Z,5.95
2022-08-14T20:34:40.074Z,5.82
2022-08-14T20:36:29.257Z,6.25
2022-08-14T20:38:30.243Z,6.03
2022-08-14T20:40:24.332Z,5.68
2022-08-14T20:42:15.992Z,5.40
2022-08-14T20:44:09.353Z,5.32
2022-08-14T20:45:47.746Z,5.68
2022-08-14T20:47:22.135Z,5.20
2022-08-14T20:49:06.575Z,5.65
2022-08-14T20:50:45.136Z,5.47
2022-08-14T20:52:19.221Z,5.88
2022-08-14T20:54:04.103Z,6.07
2022-08-14T20:55:41.661Z,5.72
2022-08-14T20:58:52.711Z,5.55
2022-08-14T21:00:52.575Z,6.20
2022-08-14T21:02:30.439Z,5.88
2022-08-14T21:04:26.566Z,5.82
2022-08-14T21:06:17.033Z,6.47
2022-08-14T21:07:50.761Z,6.47
2022-08-14T21:10:04.940Z,5.88
2022-08-14T21:11:20.627Z,6.00
2022-08-14T21:13:09.364Z,6.70
2022-08-14T21:14:51.657Z,6.22
2022-08-14T21:16:33.004Z,6.28
2022-08-14T21:18:07.370Z,6.20
2022-08-14T21:19:39.592Z,7.72
2022-08-14T21:21:17.125Z,8.50
2022-08-14T21:22:48.779Z,6.60
2022-08-14T21:24:38.977Z,6.63
2022-08-14T21:26:15.155Z,5.57
2022-08-14T21:27:57.214Z,6.03
2022-08-14T21:29:31.019Z,5.65
2022-08-14T21:31:06.699Z,5.80
2022-08-14T21:32:47.057Z,5.60
2022-08-14T21:34:31.065Z,5.75
2022-08-14T21:37:45.770Z,6.47
2022-08-14T21:39:22.250Z,6.95
2022-08-14T21:40:56.841Z,7.60
2022-08-14T21:42:31.223Z,6.50
2022-08-14T21:44:17.827Z,7.50
2022-08-14T21:45:58.814Z,7.60
2022-08-14T21:47:30.633Z,6.80
2022-08-14T21:49:15.364Z,7.60
2022-08-14T21:51:01.150Z,7.22
2022-08-14T21:52:50.833Z,6.40
2022-08-14T21:54:49.267Z,7.60
2022-08-14T21:56:21.987Z,6.90
2022-08-14T21:58:51.884Z,6.72
2022-08-14T22:00:30.578Z,6.75
2022-08-14T22:02:01.860Z,5.97
2022-08-14T22:03:35.206Z,5.53
2022-08-14T22:05:09.167Z,5.35
2022-08-14T22:06:43.379Z,5.80
2022-08-14T22:08:17.501Z,5.65
2022-08-14T22:09:54.830Z,5.88
2022-08-14T22:11:27.956Z,5.93
2022-08-14T22:13:01.617Z,6.20
2022-08-14T22:14:43.347Z,6.28
2022-08-14T22:17:03.686Z,5.95
2022-08-14T22:18:07.891Z,6.50